Time;durP1;ratioP1;P1;durP2;ratioP2;P2;SDS_P1;SDS_P2;PMS_P1;PMS_P2;Temp;Humidity;BMP_temperature;BMP_pressure;BME280_temperature;BME280_humidity;BME280_pressure;Samples;Min_cycle;Max_cycle;Signal;HPM_P1;HPM_P2
2021/10/15 04:16:35;;;;;;;0.60;0.60;;;;;;;2.73;100.00;99102.09;5462113;23;20450;-72
2021/10/15 04:19:01;;;;;;;0.50;0.50;;;;;;;2.67;100.00;99102.00;4993466;28;20046;-72
2021/10/15 04:21:26;;;;;;;0.65;0.65;;;;;;;2.69;100.00;99095.22;4993397;28;20027;-72
2021/10/15 04:23:52;;;;;;;1.50;1.50;;;;;;;2.67;100.00;99091.78;4993556;28;20034;-72
2021/10/15 04:26:17;;;;;;;0.90;0.90;;;;;;;2.76;100.00;99091.94;4993448;28;20038;-72
2021/10/15 04:28:43;;;;;;;0.50;0.50;;;;;;;2.73;100.00;99089.31;4993350;28;20077;-71
2021/10/15 04:31:10;;;;;;;0.57;0.57;;;;;;;2.65;100.00;99087.44;4992619;28;20026;-71
2021/10/15 04:33:35;;;;;;;0.50;0.50;;;;;;;2.72;100.00;99085.03;4992684;28;20022;-71
2021/10/15 04:36:00;;;;;;;0.60;0.60;;;;;;;2.70;100.00;99091.81;4992799;28;20057;-71
2021/10/15 04:38:26;;;;;;;0.88;0.88;;;;;;;2.67;100.00;99089.22;4992744;28;20105;-71
2021/10/15 04:40:51;;;;;;;1.00;0.95;;;;;;;2.70;100.00;99088.38;4993863;28;20475;-71
2021/10/15 04:43:16;;;;;;;0.50;0.50;;;;;;;2.68;100.00;99075.59;4993989;28;20026;-71
2021/10/15 04:45:42;;;;;;;1.15;1.05;;;;;;;2.94;100.00;99086.25;4992657;28;20030;-71
2021/10/15 04:48:07;;;;;;;0.57;0.57;;;;;;;3.13;100.00;99079.75;4992566;28;20026;-70
2021/10/15 04:50:36;;;;;;;0.50;0.50;;;;;;;2.84;100.00;99074.16;4992498;28;20018;-70
2021/10/15 04:53:05;;;;;;;0.77;0.77;;;;;;;2.70;100.00;99075.59;4992256;28;20038;-70
2021/10/15 04:55:31;;;;;;;0.52;0.52;;;;;;;2.63;100.00;99082.31;4992160;28;20022;-70
2021/10/15 04:57:57;;;;;;;0.60;0.60;;;;;;;2.63;100.00;99077.19;4992518;28;20034;-70
2021/10/15 05:00:27;;;;;;;0.63;0.63;;;;;;;2.61;100.00;99076.31;4992116;28;20057;-70
2021/10/15 05:02:53;;;;;;;0.88;0.88;;;;;;;2.49;100.00;99070.97;4992264;28;20030;-70
2021/10/15 05:05:28;;;;;;;1.63;0.90;;;;;;;2.42;100.00;99069.09;4994445;28;20080;-70
2021/10/15 05:07:57;;;;;;;1.15;1.15;;;;;;;2.40;100.00;99068.22;4992236;28;20479;-70
2021/10/15 05:10:23;;;;;;;0.65;0.65;;;;;;;2.37;100.00;99065.59;4992290;28;20033;-70
2021/10/15 05:12:50;;;;;;;0.50;0.50;;;;;;;2.35;100.00;99064.72;4993193;28;20034;-70
2021/10/15 05:15:16;;;;;;;0.77;0.77;;;;;;;2.45;100.00;99061.50;4991876;28;20036;-70
2021/10/15 05:17:42;;;;;;;0.73;0.73;;;;;;;2.43;100.00;99060.63;4992182;28;20109;-70
2021/10/15 05:20:10;;;;;;;0.60;0.60;;;;;;;2.37;100.00;99061.38;4992279;28;20065;-69
2021/10/15 05:22:36;;;;;;;0.93;0.93;;;;;;;2.36;100.00;99053.66;4991750;28;20022;-69
2021/10/15 05:25:03;;;;;;;0.60;0.60;;;;;;;2.40;100.00;99060.56;4990800;28;20030;-70
2021/10/15 05:27:29;;;;;;;0.70;0.70;;;;;;;2.45;100.00;99058.94;4991915;28;20041;-70
2021/10/15 05:29:55;;;;;;;0.60;0.60;;;;;;;2.45;100.00;99058.94;4992360;28;20101;-71
2021/10/15 05:32:21;;;;;;;1.42;1.33;;;;;;;2.43;100.00;99061.47;4991683;28;20026;-70
2021/10/15 05:34:47;;;;;;;0.68;0.68;;;;;;;2.36;100.00;99059.63;4991949;28;20387;-70
2021/10/15 05:37:13;;;;;;;0.57;0.57;;;;;;;2.34;100.00;99060.44;4989950;28;20030;-70
2021/10/15 05:39:38;;;;;;;0.93;0.93;;;;;;;2.16;100.00;99060.94;4988390;28;20037;-70
2021/10/15 05:42:05;;;;;;;0.68;0.68;;;;;;;2.12;100.00;99060.00;4993199;28;20026;-69
2021/10/15 05:44:30;;;;;;;0.70;0.70;;;;;;;2.18;100.00;99059.28;4990234;28;20034;-70
2021/10/15 05:46:59;;;;;;;2.58;0.85;;;;;;;2.26;100.00;99061.16;4991870;28;20045;-70
2021/10/15 05:49:24;;;;;;;0.73;0.73;;;;;;;2.35;100.00;99059.59;4992000;28;20050;-70
2021/10/15 05:51:50;;;;;;;1.05;1.05;;;;;;;2.31;100.00;99068.91;4991613;28;20015;-70
2021/10/15 05:54:25;;;;;;;0.70;0.70;;;;;;;2.29;100.00;99061.22;4992302;28;20031;-70
2021/10/15 05:57:15;;;;;;;0.63;0.63;;;;;;;2.61;100.00;99055.84;4991584;28;20045;-70
2021/10/15 05:59:42;;;;;;;1.20;1.15;;;;;;;2.54;100.00;99054.00;4989162;28;20026;-70
2021/10/15 06:02:08;;;;;;;0.60;0.60;;;;;;;2.49;100.00;99055.63;4990293;28;20052;-70
2021/10/15 06:15:09;;;;;;;0.80;0.80;;;;;;;2.62;100.00;99061.84;4987854;28;20045;-70
2021/10/15 06:17:42;;;;;;;0.50;0.50;;;;;;;2.78;100.00;99062.13;4991288;28;20442;-70
2021/10/15 06:20:08;;;;;;;0.50;0.50;;;;;;;2.84;100.00;99064.78;4991931;28;20398;-70
2021/10/15 06:22:33;;;;;;;1.20;1.10;;;;;;;2.77;100.00;99062.97;4991257;28;20163;-70
2021/10/15 06:24:58;;;;;;;1.02;1.02;;;;;;;2.95;100.00;99076.88;4950532;28;20081;-70
2021/10/15 06:27:25;;;;;;;0.68;0.68;;;;;;;2.95;100.00;99071.78;5003469;28;20033;-69
2021/10/15 06:29:50;;;;;;;2.15;1.95;;;;;;;3.04;100.00;99071.94;4995155;28;20031;-70
2021/10/15 06:32:17;;;;;;;0.60;0.60;;;;;;;3.03;100.00;99063.38;4994828;28;20022;-70
2021/10/15 06:34:43;;;;;;;0.70;0.70;;;;;;;3.08;100.00;99073.72;4994917;28;20102;-69
2021/10/15 06:37:08;;;;;;;0.82;0.82;;;;;;;2.90;100.00;99069.16;4991733;28;20118;-70
2021/10/15 06:39:33;;;;;;;2.55;1.10;;;;;;;3.03;100.00;99070.22;4994795;28;20030;-69
2021/10/15 06:41:59;;;;;;;0.77;0.77;;;;;;;3.10;100.00;99066.94;4997713;28;20398;-70
2021/10/15 06:44:24;;;;;;;0.50;0.50;;;;;;;2.95;100.00;99069.22;4994795;28;20022;-70
2021/10/15 06:46:49;;;;;;;1.92;1.83;;;;;;;3.12;100.00;99072.94;4993395;28;20280;-70
2021/10/15 06:49:15;;;;;;;1.33;1.33;;;;;;;2.95;100.00;99072.66;4994718;28;20022;-69
2021/10/15 06:51:40;;;;;;;0.50;0.50;;;;;;;2.96;100.00;99078.63;4994545;28;20025;-69
2021/10/15 06:54:06;;;;;;;0.75;0.75;;;;;;;2.87;100.00;99073.34;4994631;28;20026;-70
2021/10/15 06:56:31;;;;;;;7.13;2.35;;;;;;;2.92;100.00;99071.75;4994415;28;20054;-69
2021/10/15 06:58:57;;;;;;;0.85;0.85;;;;;;;3.12;100.00;99075.50;4994662;28;20214;-69
2021/10/15 07:01:22;;;;;;;0.80;0.70;;;;;;;3.13;100.00;99077.19;4994239;28;20061;-70
2021/10/15 07:03:47;;;;;;;1.05;1.00;;;;;;;3.17;100.00;99081.53;4993976;28;20030;-70
2021/10/15 07:06:13;;;;;;;0.60;0.60;;;;;;;3.11;100.00;99084.00;4994335;28;20022;-70
2021/10/15 07:08:38;;;;;;;0.57;0.57;;;;;;;3.14;100.00;99078.91;4994531;28;20049;-70
2021/10/15 07:11:04;;;;;;;0.50;0.50;;;;;;;3.18;100.00;99084.97;4995227;28;20034;-70
2021/10/15 07:13:29;;;;;;;0.50;0.50;;;;;;;3.55;100.00;99081.28;4994151;28;20117;-70
2021/10/15 07:15:55;;;;;;;0.50;0.50;;;;;;;3.91;100.00;99069.81;4990195;28;20300;-70
2021/10/15 07:18:20;;;;;;;1.23;1.23;;;;;;;3.86;100.00;99068.06;4994254;28;20034;-70
2021/10/15 07:20:45;;;;;;;0.93;0.93;;;;;;;4.08;100.00;99073.47;4993387;28;20022;-70
2021/10/15 07:23:16;;;;;;;0.82;0.82;;;;;;;4.26;100.00;99072.84;4994044;28;20497;-70
2021/10/15 07:25:42;;;;;;;1.15;1.15;;;;;;;4.58;100.00;99070.63;4988518;28;20050;-70
2021/10/15 07:28:11;;;;;;;0.75;0.75;;;;;;;4.61;97.64;99071.53;4990309;28;20030;-69
2021/10/15 07:30:37;;;;;;;0.70;0.70;;;;;;;4.73;96.88;99070.78;4993926;28;20022;-70
2021/10/15 07:33:02;;;;;;;0.60;0.60;;;;;;;5.20;95.92;99067.78;4993788;28;20030;-70
2021/10/15 07:35:28;;;;;;;0.70;0.70;;;;;;;5.28;95.07;99058.44;4952233;28;20034;-70
2021/10/15 07:37:53;;;;;;;0.55;0.55;;;;;;;5.12;95.10;99069.44;4997020;28;20021;-70
2021/10/15 07:40:18;;;;;;;2.25;2.15;;;;;;;5.24;95.20;99069.53;4993704;28;20018;-70
2021/10/15 07:42:44;;;;;;;0.90;0.85;;;;;;;5.50;93.91;99076.56;4996407;28;20038;-70
2021/10/15 07:45:09;;;;;;;0.50;0.50;;;;;;;5.55;93.32;99075.75;4993563;28;20022;-70
2021/10/15 07:47:34;;;;;;;0.50;0.50;;;;;;;5.61;92.86;99080.09;4993134;28;20104;-70
2021/10/15 07:50:00;;;;;;;0.40;0.40;;;;;;;5.71;92.36;99081.88;4993659;28;20766;-70
2021/10/15 07:52:25;;;;;;;0.98;0.98;;;;;;;5.98;92.67;99078.63;4993846;28;20022;-70
2021/10/15 07:54:50;;;;;;;1.42;1.30;;;;;;;6.86;88.59;99075.47;4990001;28;20085;-70
2021/10/15 07:57:16;;;;;;;0.73;0.73;;;;;;;6.73;88.83;99070.34;4990746;28;20034;-70
2021/10/15 07:59:42;;;;;;;0.47;0.47;;;;;;;7.77;83.29;99078.91;4993428;28;20026;-70
2021/10/15 08:02:08;;;;;;;1.75;1.63;;;;;;;8.63;78.87;99069.16;4993240;28;20044;-70
2021/10/15 08:04:35;;;;;;;0.60;0.60;;;;;;;8.86;75.92;99066.47;4993404;28;20026;-70
2021/10/15 08:07:01;;;;;;;1.02;1.02;;;;;;;10.87;69.35;99052.25;4993170;28;20573;-70
2021/10/15 08:09:27;;;;;;;0.75;0.75;;;;;;;11.23;66.56;99062.97;4993116;28;20037;-71
2021/10/15 08:11:52;;;;;;;0.82;0.82;;;;;;;10.38;70.12;99063.28;4993624;28;20014;-70
2021/10/15 08:14:18;;;;;;;0.77;0.77;;;;;;;9.78;71.35;99070.88;4991238;28;20023;-70
2021/10/15 08:16:44;;;;;;;0.63;0.60;;;;;;;10.36;72.17;99057.28;4992920;28;20022;-70
2021/10/15 08:19:10;;;;;;;1.08;1.08;;;;;;;11.73;65.72;99050.84;4993111;28;20125;-70
2021/10/15 08:21:35;;;;;;;1.55;1.00;;;;;;;12.46;62.08;99054.63;4992889;28;20030;-70
2021/10/15 08:24:00;;;;;;;0.70;0.52;;;;;;;12.59;62.18;99056.09;4992938;28;20584;-70
2021/10/15 08:26:26;;;;;;;1.27;1.25;;;;;;;12.54;62.07;99063.13;4992852;28;20045;-70
2021/10/15 08:28:58;;;;;;;0.43;0.43;;;;;;;13.67;56.62;99058.75;4997408;28;20415;-70
2021/10/15 08:31:27;;;;;;;0.68;0.68;;;;;;;13.50;58.95;99056.59;4991240;28;20294;-71
2021/10/15 08:33:53;;;;;;;0.70;0.70;;;;;;;15.16;54.38;99054.44;4992750;28;20053;-71
2021/10/15 08:36:19;;;;;;;0.63;0.63;;;;;;;16.12;52.51;99050.31;4991415;28;20444;-70
2021/10/15 08:38:44;;;;;;;0.50;0.50;;;;;;;16.58;49.85;99051.22;4992791;28;20022;-70
2021/10/15 08:41:11;;;;;;;0.50;0.50;;;;;;;18.43;46.12;99050.56;4995329;28;20026;-71
2021/10/15 08:43:41;;;;;;;0.57;0.57;;;;;;;18.96;44.27;99060.38;4992412;28;20032;-71
2021/10/15 08:46:07;;;;;;;0.65;0.65;;;;;;;20.09;40.35;99049.47;4970961;28;20088;-71
2021/10/15 08:48:37;;;;;;;0.70;0.68;;;;;;;21.95;38.40;99045.19;4992937;28;20022;-70
2021/10/15 08:51:03;;;;;;;0.65;0.65;;;;;;;22.03;37.10;99048.22;4987793;28;20033;-71
2021/10/15 08:53:29;;;;;;;0.50;0.50;;;;;;;20.65;40.40;99056.16;4990927;28;20033;-71
2021/10/15 08:55:54;;;;;;;1.63;1.02;;;;;;;20.57;39.90;99055.69;4992903;28;20368;-71
2021/10/15 08:58:20;;;;;;;1.02;0.98;;;;;;;21.52;38.76;99055.66;4992395;28;20026;-71
2021/10/15 09:00:56;;;;;;;0.55;0.55;;;;;;;17.29;46.79;99069.44;4992312;28;20483;-71
2021/10/15 09:03:23;;;;;;;5.40;1.90;;;;;;;18.46;46.22;99061.75;4989952;28;20057;-70
2021/10/15 09:05:56;;;;;;;0.68;0.68;;;;;;;18.80;45.69;99056.75;4986062;28;20022;-70
2021/10/15 09:08:22;;;;;;;1.05;1.02;;;;;;;20.63;41.00;99052.72;4989866;28;20117;-71
2021/10/15 09:10:48;;;;;;;0.77;0.77;;;;;;;21.24;40.66;99041.41;4992379;28;20115;-71
2021/10/15 09:13:18;;;;;;;0.93;0.93;;;;;;;23.16;36.03;99043.78;4992378;28;20499;-71
2021/10/15 09:15:45;;;;;;;1.05;0.50;;;;;;;21.96;36.68;99049.53;4987351;28;20507;-71
2021/10/15 09:18:15;;;;;;;3.53;1.90;;;;;;;24.53;33.38;99048.63;4992266;28;20030;-72
2021/10/15 09:20:41;;;;;;;0.57;0.55;;;;;;;25.18;32.68;99045.69;4986575;28;20029;-72
2021/10/15 09:23:06;;;;;;;0.45;0.45;;;;;;;23.76;34.83;99043.31;4991903;28;20026;-72
2021/10/15 09:25:37;;;;;;;0.68;0.68;;;;;;;23.42;33.62;99052.66;4992023;28;20030;-72
2021/10/15 09:28:15;;;;;;;0.40;0.40;;;;;;;26.19;31.33;99037.19;4991142;28;20030;-72
2021/10/15 09:30:43;;;;;;;0.70;0.70;;;;;;;26.77;29.80;99040.56;4986454;28;20434;-72
2021/10/15 09:33:09;;;;;;;0.45;0.43;;;;;;;27.02;28.89;99044.75;4991943;28;20030;-73
2021/10/15 09:35:34;;;;;;;0.50;0.50;;;;;;;27.39;27.13;99035.44;4991818;28;20018;-73
2021/10/15 09:38:02;;;;;;;0.70;0.70;;;;;;;25.56;29.00;99039.31;4991992;28;20369;-73
2021/10/15 09:40:48;;;;;;;0.45;0.32;;;;;;;25.20;30.20;99037.63;4991904;28;20022;-73
2021/10/15 09:43:14;;;;;;;0.55;0.50;;;;;;;26.78;28.19;99029.78;4991960;28;20056;-73
2021/10/15 09:45:43;;;;;;;1.55;1.17;;;;;;;27.45;27.36;99031.44;4982946;28;20026;-73
2021/10/15 09:48:38;;;;;;;0.57;0.52;;;;;;;25.45;29.84;99031.34;4989258;28;20022;-73
2021/10/15 09:51:20;;;;;;;0.93;0.38;;;;;;;27.70;26.60;99016.88;4991919;28;20069;-73
2021/10/15 09:54:08;;;;;;;0.68;0.52;;;;;;;28.93;24.84;99023.94;4990013;28;20018;-73
2021/10/15 09:56:49;;;;;;;0.20;0.20;;;;;;;28.12;25.21;99022.22;4991698;28;20550;-73
2021/10/15 09:59:15;;;;;;;0.30;0.30;;;;;;;28.43;26.03;99021.28;4994515;28;20022;-73
2021/10/15 10:01:41;;;;;;;0.45;0.32;;;;;;;29.23;23.78;99024.81;4993450;28;20029;-73
2021/10/15 10:04:11;;;;;;;0.20;0.20;;;;;;;27.60;26.43;99031.97;4991597;28;20108;-72
2021/10/15 10:06:37;;;;;;;0.25;0.25;;;;;;;28.74;24.03;99029.22;4995118;28;20388;-73
2021/10/15 10:09:04;;;;;;;0.20;0.20;;;;;;;29.22;23.71;99020.47;4989673;28;20176;-73
2021/10/15 10:11:30;;;;;;;0.50;0.50;;;;;;;28.42;24.73;99019.56;4995271;28;20097;-73
2021/10/15 10:13:55;;;;;;;1.05;0.40;;;;;;;27.48;25.59;99017.88;4995260;28;20026;-73
2021/10/15 10:16:23;;;;;;;1.55;1.45;;;;;;;25.20;29.44;99022.56;4995152;28;20093;-73
2021/10/15 10:18:52;;;;;;;0.95;0.85;;;;;;;24.54;30.47;99021.19;4995375;28;20293;-73
2021/10/15 10:21:24;;;;;;;0.10;0.10;;;;;;;24.27;29.91;99013.34;4990443;28;20380;-73
2021/10/15 10:24:10;;;;;;;2.08;0.68;;;;;;;24.33;31.74;99010.28;4988958;28;20030;-73
2021/10/15 10:29:03;;;;;;;0.50;0.50;;;;;;;24.29;31.17;99007.00;5065366;28;20763;-71
2021/10/15 10:31:29;;;;;;;0.63;0.63;;;;;;;23.88;31.59;99003.72;5051717;28;20441;-73
2021/10/15 10:34:08;;;;;;;0.52;0.52;;;;;;;24.40;30.87;99005.41;5048648;28;20087;-73
2021/10/15 10:36:37;;;;;;;0.17;0.17;;;;;;;24.01;31.98;99007.22;5048613;28;20504;-73
2021/10/15 10:39:21;;;;;;;0.60;0.47;;;;;;;23.24;32.53;99009.75;5059440;22;20056;-73
2021/10/15 10:42:00;;;;;;;0.75;0.63;;;;;;;22.91;33.87;99001.38;5012764;28;20048;-73
2021/10/15 10:44:26;;;;;;;0.38;0.38;;;;;;;23.72;33.16;98998.66;5007190;28;20026;-73
2021/10/15 10:47:14;;;;;;;0.20;0.20;;;;;;;24.58;31.05;98998.81;5007962;28;20035;-73
2021/10/15 10:49:41;;;;;;;0.30;0.30;;;;;;;23.87;31.95;98991.47;5006891;28;20037;-73
2021/10/15 10:52:09;;;;;;;0.10;0.10;;;;;;;25.55;30.39;98985.41;5000900;28;20034;-73
2021/10/15 10:54:36;;;;;;;1.20;0.70;;;;;;;24.49;31.19;98989.72;5003718;28;20395;-73
2021/10/15 10:57:29;;;;;;;0.20;0.20;;;;;;;24.80;30.99;98983.06;5003013;28;20487;-73
2021/10/15 11:00:20;;;;;;;0.20;0.20;;;;;;;23.98;31.07;98981.84;5004680;28;20045;-73
2021/10/15 11:02:48;;;;;;;0.30;0.30;;;;;;;23.40;32.38;98983.13;5001831;28;20025;-73
2021/10/15 11:05:38;;;;;;;0.50;0.50;;;;;;;24.17;32.33;98989.31;5007700;28;20034;-74
2021/10/15 11:08:26;;;;;;;1.70;0.65;;;;;;;24.69;30.46;98985.63;5002496;28;20018;-73
2021/10/15 11:11:12;;;;;;;0.93;0.67;;;;;;;22.80;33.26;98992.31;4996316;28;20479;-73
2021/10/15 11:13:38;;;;;;;0.57;0.57;;;;;;;22.50;34.11;98986.38;5007250;28;20479;-73
2021/10/15 11:16:25;;;;;;;0.63;0.63;;;;;;;24.69;31.05;98988.25;5002970;28;20542;-73
2021/10/15 11:18:51;;;;;;;0.20;0.20;;;;;;;23.36;33.48;98986.94;4984254;28;20025;-73
2021/10/15 11:21:20;;;;;;;1.48;1.25;;;;;;;22.61;34.24;98978.59;4998830;28;20026;-73
2021/10/15 11:23:45;;;;;;;0.43;0.43;;;;;;;21.50;36.53;98984.53;4999061;28;20031;-73
2021/10/15 11:26:11;;;;;;;9.90;2.05;;;;;;;22.68;35.09;98974.66;5001436;28;20060;-73
2021/10/15 11:28:36;;;;;;;0.20;0.20;;;;;;;22.30;36.23;98980.56;4999081;28;20372;-73
2021/10/15 11:31:06;;;;;;;3.97;0.90;;;;;;;23.32;34.08;98970.44;5005080;28;20034;-74
2021/10/15 11:33:36;;;;;;;0.75;0.70;;;;;;;21.97;36.19;98982.63;4995843;28;20138;-73
2021/10/15 11:36:01;;;;;;;;;;;;;;;21.04;37.62;98981.94;5005808;28;20022;-73
2021/10/15 11:38:28;;;;;;;0.60;0.60;;;;;;;20.10;40.67;98976.63;4992240;28;19921;-73
2021/10/15 11:40:57;;;;;;;0.22;0.22;;;;;;;19.04;42.96;98984.66;4991644;28;20492;-73
2021/10/15 11:43:27;;;;;;;;;;;;;;;19.82;40.72;98966.72;4982984;28;20395;-73
2021/10/15 11:46:03;;;;;;;0.50;0.50;;;;;;;17.84;45.60;98980.66;4987999;28;19957;-73
2021/10/15 11:48:30;;;;;;;0.30;0.30;;;;;;;18.48;44.11;98975.09;4986470;28;20388;-73
2021/10/15 11:51:00;;;;;;;0.88;0.88;;;;;;;18.65;43.46;98969.88;4990322;28;20518;-73
2021/10/15 11:53:28;;;;;;;0.10;0.10;;;;;;;18.53;43.71;98981.00;4986151;28;20034;-73
2021/10/15 11:55:54;;;;;;;0.45;0.45;;;;;;;19.75;42.05;98967.06;4988272;28;20113;-73
2021/10/15 11:58:31;;;;;;;0.32;0.32;;;;;;;21.17;38.58;98952.22;4987714;28;20023;-73
2021/10/15 12:01:07;;;;;;;0.45;0.30;;;;;;;19.75;41.03;98951.28;4993181;28;20034;-73
2021/10/15 12:03:49;;;;;;;0.40;0.40;;;;;;;19.16;43.56;98951.72;4989853;28;20014;-73
2021/10/15 12:06:40;;;;;;;0.57;0.57;;;;;;;16.67;46.47;98956.66;4994288;28;20033;-73
2021/10/15 12:09:07;;;;;;;0.30;0.30;;;;;;;17.52;45.98;98951.44;4980823;28;20455;-73
2021/10/15 12:11:34;;;;;;;0.32;0.32;;;;;;;16.12;48.53;98952.75;4985301;28;20018;-73
2021/10/15 12:14:04;;;;;;;0.22;0.22;;;;;;;16.76;48.53;98946.78;4991549;28;20085;-74
2021/10/15 12:16:32;;;;;;;0.47;0.47;;;;;;;16.73;47.21;98944.28;5001963;28;20019;-70
2021/10/15 12:19:04;;;;;;;1.95;1.35;;;;;;;16.72;48.51;98950.44;4981094;28;20034;-69
2021/10/15 12:21:40;;;;;;;0.43;0.43;;;;;;;17.17;45.28;98948.56;4983383;28;20553;-70
2021/10/15 12:24:09;;;;;;;0.35;0.35;;;;;;;17.45;47.27;98950.88;4986497;28;20026;-70
2021/10/15 12:26:35;;;;;;;1.27;0.52;;;;;;;16.79;48.83;98959.75;4987686;28;20557;-70
2021/10/15 12:29:02;;;;;;;0.57;0.50;;;;;;;17.34;47.38;98952.22;4986973;28;20031;-70
2021/10/15 12:31:30;;;;;;;0.82;0.55;;;;;;;17.74;46.93;98951.38;4988237;28;20031;-72
2021/10/15 12:34:14;;;;;;;0.52;0.52;;;;;;;16.89;49.38;98953.25;4982506;28;20023;-70
2021/10/15 12:36:41;;;;;;;0.30;0.30;;;;;;;16.46;50.09;98957.53;4990790;28;20030;-70
2021/10/15 12:39:22;;;;;;;0.30;0.30;;;;;;;15.07;53.24;98959.91;4987009;28;20026;-70
2021/10/15 12:41:49;;;;;;;1.17;1.08;;;;;;;15.77;52.36;98948.84;4981478;28;20472;-70
2021/10/15 12:44:28;;;;;;;0.55;0.55;;;;;;;15.87;51.29;98953.66;4984353;28;20479;-71
2021/10/15 12:47:11;;;;;;;0.28;0.28;;;;;;;16.07;52.77;98955.53;4988216;28;20023;-72
2021/10/15 12:50:00;;;;;;;0.45;0.45;;;;;;;16.71;50.26;98941.72;4990166;28;20038;-72
2021/10/15 12:52:37;;;;;;;0.47;0.47;;;;;;;17.39;49.72;98939.78;4982303;28;20041;-72
2021/10/15 12:55:18;;;;;;;0.13;0.13;;;;;;;17.17;48.42;98940.72;4979857;28;20015;-72
2021/10/15 12:57:46;;;;;;;0.30;0.30;;;;;;;16.59;49.66;98942.22;4982169;28;20026;-72
2021/10/15 13:00:24;;;;;;;0.22;0.22;;;;;;;16.82;48.94;98949.16;4986643;28;20038;-72
2021/10/15 13:03:07;;;;;;;0.47;0.38;;;;;;;17.15;48.44;98947.75;4986795;28;20026;-72
2021/10/15 13:05:34;;;;;;;1.50;1.40;;;;;;;16.78;50.75;98950.19;4979172;28;20030;-72
2021/10/15 13:08:00;;;;;;;1.30;0.50;;;;;;;17.07;50.00;98939.41;4985911;28;20529;-72
2021/10/15 13:10:27;;;;;;;0.22;0.22;;;;;;;17.68;49.27;98941.97;4985617;28;20088;-72
2021/10/15 13:12:54;;;;;;;0.40;0.40;;;;;;;16.08;52.50;98945.91;4987243;28;20101;-72
2021/10/15 13:15:24;;;;;;;0.20;0.20;;;;;;;16.91;51.31;98938.31;4983213;28;20022;-71
2021/10/15 13:17:50;;;;;;;0.10;0.10;;;;;;;17.02;50.69;98928.28;4982565;28;20029;-71
2021/10/15 13:20:17;;;;;;;0.88;0.88;;;;;;;16.81;49.84;98926.53;4984984;28;20101;-71
2021/10/15 13:22:43;;;;;;;0.30;0.30;;;;;;;16.81;51.76;98926.53;4983253;28;20052;-70
2021/10/15 13:25:09;;;;;;;0.45;0.45;;;;;;;16.07;52.44;98924.16;4990381;28;20387;-71
2021/10/15 13:27:35;;;;;;;0.40;0.40;;;;;;;16.31;51.86;98921.53;4981154;28;20026;-72
2021/10/15 13:30:01;;;;;;;0.20;0.20;;;;;;;16.60;52.45;98922.97;4987216;28;20372;-72
2021/10/15 13:32:27;;;;;;;0.47;0.47;;;;;;;16.43;51.51;98926.25;4984575;28;20037;-72
2021/10/15 13:34:53;;;;;;;0.77;0.75;;;;;;;16.05;52.39;98931.22;4990293;28;20030;-72
2021/10/15 13:37:28;;;;;;;0.55;0.55;;;;;;;16.22;51.77;98921.88;4992116;28;20034;-72
2021/10/15 13:39:55;;;;;;;0.43;0.30;;;;;;;15.75;55.07;98927.97;4985283;28;20027;-72
2021/10/15 13:42:37;;;;;;;0.40;0.40;;;;;;;15.47;53.93;98922.84;4982421;28;20022;-71
2021/10/15 13:50:40;;;;;;;0.40;0.40;;;;;;;15.55;55.10;98920.81;4985170;28;20589;-72
2021/10/15 13:53:07;;;;;;;0.43;0.43;;;;;;;15.80;52.79;98920.81;4988356;28;20037;-72
2021/10/15 13:55:40;;;;;;;0.30;0.30;;;;;;;15.31;54.06;98922.53;4985329;28;20022;-72
2021/10/15 13:58:13;;;;;;;0.30;0.30;;;;;;;15.84;54.22;98929.38;4989947;28;20070;-72
2021/10/15 14:00:42;;;;;;;0.47;0.47;;;;;;;15.80;53.08;98923.41;4985417;28;20380;-72
2021/10/15 14:03:10;;;;;;;0.50;0.40;;;;;;;16.26;53.32;98918.25;4978898;28;20088;-72
2021/10/15 14:05:35;;;;;;;0.20;0.20;;;;;;;16.23;53.17;98931.41;4983036;28;20339;-72
2021/10/15 14:08:01;;;;;;;0.20;0.20;;;;;;;16.53;51.99;98926.75;4985244;28;20455;-72
2021/10/15 14:10:27;;;;;;;0.50;0.40;;;;;;;16.23;51.90;98928.81;4980782;28;20026;-72
2021/10/15 14:12:52;;;;;;;0.50;0.50;;;;;;;16.04;54.45;98924.28;4985630;28;20149;-72
2021/10/15 14:15:18;;;;;;;0.80;0.63;;;;;;;15.92;53.67;98927.34;4983747;28;20049;-72
2021/10/15 14:17:43;;;;;;;0.38;0.38;;;;;;;15.81;55.08;98932.09;4981570;28;20097;-72
2021/10/15 14:20:09;;;;;;;0.30;0.30;;;;;;;15.25;54.39;98932.34;4984290;28;20028;-72
2021/10/15 14:22:34;;;;;;;0.22;0.22;;;;;;;14.51;55.54;98934.78;4983278;28;20023;-72
2021/10/15 14:25:00;;;;;;;0.45;0.45;;;;;;;14.46;56.82;98947.06;4985103;28;20391;-72
2021/10/15 14:27:25;;;;;;;0.63;0.63;;;;;;;14.65;56.96;98940.41;4980597;28;20026;-72
2021/10/15 14:29:50;;;;;;;0.30;0.30;;;;;;;14.32;57.65;98946.66;4988721;28;20022;-72
2021/10/15 14:32:16;;;;;;;0.30;0.30;;;;;;;14.67;57.99;98942.13;4990025;28;20384;-72
2021/10/15 14:34:42;;;;;;;0.63;0.50;;;;;;;14.64;57.42;98945.66;4990261;28;20030;-72
2021/10/15 14:37:07;;;;;;;0.40;0.40;;;;;;;14.11;58.70;98956.78;4985924;28;20053;-72
2021/10/15 14:39:33;;;;;;;0.22;0.22;;;;;;;14.22;57.71;98947.81;4982057;28;20058;-71
2021/10/15 14:41:58;;;;;;;0.35;0.35;;;;;;;13.98;58.28;98939.81;4980520;28;20077;-71
2021/10/15 14:44:23;;;;;;;0.28;0.28;;;;;;;14.25;58.81;98942.50;4984095;28;20487;-72
2021/10/15 14:46:49;;;;;;;0.65;0.63;;;;;;;14.19;58.86;98947.91;4981977;28;20026;-71
2021/10/15 14:49:16;;;;;;;2.92;0.90;;;;;;;14.34;58.33;98943.06;4986703;28;20065;-72
2021/10/15 14:51:41;;;;;;;0.80;0.70;;;;;;;14.65;58.51;98935.19;4983577;28;20043;-71
2021/10/15 14:54:07;;;;;;;0.63;0.63;;;;;;;14.61;59.01;98938.78;4988280;28;20438;-72
2021/10/15 14:56:33;;;;;;;1.20;0.60;;;;;;;14.80;56.92;98941.66;4981150;28;20037;-72
2021/10/15 14:58:58;;;;;;;1.15;0.60;;;;;;;15.06;56.30;98932.13;4978621;28;20050;-72
2021/10/15 15:01:23;;;;;;;0.45;0.45;;;;;;;14.91;56.78;98933.50;4990999;28;20030;-72
2021/10/15 15:03:49;;;;;;;0.63;0.28;;;;;;;14.72;56.71;98937.59;4985350;28;20038;-72
2021/10/15 15:06:14;;;;;;;0.40;0.40;;;;;;;14.91;56.67;98933.50;4984659;28;20044;-71
2021/10/15 15:08:40;;;;;;;1.15;1.15;;;;;;;14.80;57.01;98938.22;4982804;28;20109;-70
2021/10/15 15:11:06;;;;;;;2.80;1.60;;;;;;;14.43;57.48;98936.72;4982914;28;20030;-70
2021/10/15 15:13:34;;;;;;;0.43;0.43;;;;;;;14.27;58.61;98943.31;4987925;28;20392;-71
2021/10/15 15:16:04;;;;;;;3.03;1.30;;;;;;;14.35;59.25;98949.13;4985849;28;20053;-71
2021/10/15 15:18:30;;;;;;;0.90;0.90;;;;;;;14.45;58.65;98940.13;4988828;28;20021;-70
2021/10/15 15:21:02;;;;;;;0.40;0.40;;;;;;;14.19;59.65;98950.50;4990042;28;20026;-71
2021/10/15 15:23:35;;;;;;;0.63;0.63;;;;;;;13.85;59.71;98949.72;4982901;28;20590;-71
2021/10/15 15:26:03;;;;;;;1.50;1.23;;;;;;;13.58;59.46;98945.28;4991280;28;20026;-70
2021/10/15 15:28:29;;;;;;;0.32;0.32;;;;;;;13.87;58.66;98947.06;4988330;28;20021;-71
2021/10/15 15:30:56;;;;;;;1.23;1.13;;;;;;;13.63;59.03;98946.91;4993606;28;20030;-70
2021/10/15 15:33:21;;;;;;;0.73;0.73;;;;;;;13.42;59.53;98944.84;4984248;28;20021;-71
2021/10/15 15:35:47;;;;;;;5.05;0.63;;;;;;;13.59;59.74;98942.66;4988545;28;20400;-71
2021/10/15 15:38:12;;;;;;;0.93;0.93;;;;;;;13.38;60.63;98949.28;4984119;28;20530;-71
2021/10/15 15:40:38;;;;;;;1.33;1.23;;;;;;;13.14;62.04;98939.50;4985548;28;20033;-71
2021/10/15 15:43:04;;;;;;;0.20;0.20;;;;;;;13.12;62.97;98942.13;4985571;28;20529;-70
2021/10/15 15:45:29;;;;;;;0.68;0.68;;;;;;;12.95;64.42;98933.91;4983959;28;20595;-70
2021/10/15 15:47:55;;;;;;;0.40;0.40;;;;;;;12.79;65.80;98936.03;4991378;28;20018;-71
2021/10/15 15:50:22;;;;;;;0.30;0.30;;;;;;;12.83;67.02;98923.81;4985503;28;20054;-71
2021/10/15 15:52:52;;;;;;;0.80;0.80;;;;;;;12.67;67.94;98932.84;4988499;28;20058;-71
2021/10/15 15:55:20;;;;;;;3.90;1.10;;;;;;;12.50;70.01;98935.88;4987031;28;20034;-70
2021/10/15 15:57:47;;;;;;;0.50;0.50;;;;;;;12.38;71.20;98942.22;4988831;28;20081;-71
2021/10/15 16:00:15;;;;;;;0.40;0.40;;;;;;;11.97;73.07;98945.69;4983494;28;20033;-71
2021/10/15 16:02:41;;;;;;;0.77;0.77;;;;;;;12.01;73.81;98942.16;4981173;28;20018;-70
2021/10/15 16:05:08;;;;;;;0.40;0.40;;;;;;;11.80;74.74;98948.63;4988354;28;20053;-71
2021/10/15 16:07:33;;;;;;;1.48;1.38;;;;;;;11.65;76.59;98943.72;4985010;28;20356;-70
2021/10/15 16:09:58;;;;;;;0.90;0.63;;;;;;;11.42;77.96;98952.81;4982774;28;20037;-71
2021/10/15 16:12:24;;;;;;;0.38;0.38;;;;;;;11.41;77.72;98945.03;4984221;28;20502;-71
2021/10/15 16:14:49;;;;;;;0.50;0.50;;;;;;;11.32;77.98;98952.13;4987209;28;20046;-70